sensor_id;sensor_type;location;lat;lon;timestamp;temperature;humidity
4739;DHT22;2383;48.632;10.156;2023-03-21T00:02:40;8.90;96.30
4739;DHT22;2383;48.632;10.156;2023-03-21T00:06:42;8.90;96.40
4739;DHT22;2383;48.632;10.156;2023-03-21T00:10:44;8.90;96.50
4739;DHT22;2383;48.632;10.156;2023-03-21T00:14:46;8.90;96.40
4739;DHT22;2383;48.632;10.156;2023-03-21T00:18:49;8.80;96.30
4739;DHT22;2383;48.632;10.156;2023-03-21T00:22:53;8.70;96.50
4739;DHT22;2383;48.632;10.156;2023-03-21T00:26:55;8.90;96.50
4739;DHT22;2383;48.632;10.156;2023-03-21T00:31:18;8.80;96.40
4739;DHT22;2383;48.632;10.156;2023-03-21T00:35:20;8.80;96.40
4739;DHT22;2383;48.632;10.156;2023-03-21T00:39:42;8.70;96.70
4739;DHT22;2383;48.632;10.156;2023-03-21T00:43:48;8.80;96.60
4739;DHT22;2383;48.632;10.156;2023-03-21T00:47:50;8.80;96.60
4739;DHT22;2383;48.632;10.156;2023-03-21T00:51:52;8.80;96.60
4739;DHT22;2383;48.632;10.156;2023-03-21T00:55:58;8.80;96.50
4739;DHT22;2383;48.632;10.156;2023-03-21T01:00:00;8.90;96.40
4739;DHT22;2383;48.632;10.156;2023-03-21T01:04:01;8.90;96.50
4739;DHT22;2383;48.632;10.156;2023-03-21T01:08:06;8.70;96.50
4739;DHT22;2383;48.632;10.156;2023-03-21T01:12:24;8.70;96.60
4739;DHT22;2383;48.632;10.156;2023-03-21T01:16:26;8.70;96.50
4739;DHT22;2383;48.632;10.156;2023-03-21T01:20:28;8.70;96.60
4739;DHT22;2383;48.632;10.156;2023-03-21T01:24:30;8.60;96.70
4739;DHT22;2383;48.632;10.156;2023-03-21T01:28:35;8.60;96.50
4739;DHT22;2383;48.632;10.156;2023-03-21T01:32:37;8.50;96.40
4739;DHT22;2383;48.632;10.156;2023-03-21T01:36:39;8.40;96.50
4739;DHT22;2383;48.632;10.156;2023-03-21T01:40:48;8.40;96.60
4739;DHT22;2383;48.632;10.156;2023-03-21T01:45:56;8.30;96.60
4739;DHT22;2383;48.632;10.156;2023-03-21T01:49:42;8.30;96.60
4739;DHT22;2383;48.632;10.156;2023-03-21T01:53:53;7.80;96.90
4739;DHT22;2383;48.632;10.156;2023-03-21T01:57:56;7.90;97.10
4739;DHT22;2383;48.632;10.156;2023-03-21T02:02:26;8.00;96.90
4739;DHT22;2383;48.632;10.156;2023-03-21T02:07:05;7.80;97.20
4739;DHT22;2383;48.632;10.156;2023-03-21T02:11:20;7.90;97.10
4739;DHT22;2383;48.632;10.156;2023-03-21T02:15:23;8.20;97.10
4739;DHT22;2383;48.632;10.156;2023-03-21T02:24:02;8.20;97.00
4739;DHT22;2383;48.632;10.156;2023-03-21T02:28:24;8.30;96.90
4739;DHT22;2383;48.632;10.156;2023-03-21T02:37:20;7.70;97.30
4739;DHT22;2383;48.632;10.156;2023-03-21T02:42:05;7.80;97.20
4739;DHT22;2383;48.632;10.156;2023-03-21T02:46:14;8.00;97.00
4739;DHT22;2383;48.632;10.156;2023-03-21T02:50:25;8.10;96.90
4739;DHT22;2383;48.632;10.156;2023-03-21T02:54:28;8.20;96.80
4739;DHT22;2383;48.632;10.156;2023-03-21T02:58:48;8.10;96.70
4739;DHT22;2383;48.632;10.156;2023-03-21T03:02:50;8.20;96.90
4739;DHT22;2383;48.632;10.156;2023-03-21T03:11:40;8.30;96.80
4739;DHT22;2383;48.632;10.156;2023-03-21T03:28:55;7.80;97.40
4739;DHT22;2383;48.632;10.156;2023-03-21T03:33:00;7.90;97.10
4739;DHT22;2383;48.632;10.156;2023-03-21T03:37:06;7.70;97.20
4739;DHT22;2383;48.632;10.156;2023-03-21T03:41:16;7.70;97.30
4739;DHT22;2383;48.632;10.156;2023-03-21T03:45:48;7.70;97.10
4739;DHT22;2383;48.632;10.156;2023-03-21T03:50:06;7.80;97.20
4739;DHT22;2383;48.632;10.156;2023-03-21T03:54:13;7.90;96.90
4739;DHT22;2383;48.632;10.156;2023-03-21T03:58:19;7.90;97.00
4739;DHT22;2383;48.632;10.156;2023-03-21T04:02:26;7.90;97.10
4739;DHT22;2383;48.632;10.156;2023-03-21T04:06:29;8.00;96.90
4739;DHT22;2383;48.632;10.156;2023-03-21T04:10:30;8.10;96.90
4739;DHT22;2383;48.632;10.156;2023-03-21T04:14:34;8.10;96.90
4739;DHT22;2383;48.632;10.156;2023-03-21T04:18:46;8.10;96.80
4739;DHT22;2383;48.632;10.156;2023-03-21T04:22:52;7.90;96.80
4739;DHT22;2383;48.632;10.156;2023-03-21T04:26:55;7.80;96.90
4739;DHT22;2383;48.632;10.156;2023-03-21T04:31:12;7.60;96.90
4739;DHT22;2383;48.632;10.156;2023-03-21T04:35:33;7.60;97.40
4739;DHT22;2383;48.632;10.156;2023-03-21T04:39:39;7.60;97.30
4739;DHT22;2383;48.632;10.156;2023-03-21T04:43:41;7.80;97.30
4739;DHT22;2383;48.632;10.156;2023-03-21T04:47:43;7.80;97.40
4739;DHT22;2383;48.632;10.156;2023-03-21T04:51:45;7.80;97.20
4739;DHT22;2383;48.632;10.156;2023-03-21T04:55:51;7.90;97.10
4739;DHT22;2383;48.632;10.156;2023-03-21T04:59:58;8.00;97.10
4739;DHT22;2383;48.632;10.156;2023-03-21T05:04:01;8.00;97.10
4739;DHT22;2383;48.632;10.156;2023-03-21T05:08:05;8.00;97.10
4739;DHT22;2383;48.632;10.156;2023-03-21T05:12:07;8.00;97.10
4739;DHT22;2383;48.632;10.156;2023-03-21T05:16:09;8.00;97.20
4739;DHT22;2383;48.632;10.156;2023-03-21T05:20:12;8.10;97.10
4739;DHT22;2383;48.632;10.156;2023-03-21T05:24:19;8.00;97.00
4739;DHT22;2383;48.632;10.156;2023-03-21T05:28:23;7.80;97.20
4739;DHT22;2383;48.632;10.156;2023-03-21T05:32:34;7.40;97.50
4739;DHT22;2383;48.632;10.156;2023-03-21T05:36:36;7.30;97.50
4739;DHT22;2383;48.632;10.156;2023-03-21T05:40:46;7.20;97.80
4739;DHT22;2383;48.632;10.156;2023-03-21T05:44:48;7.50;97.70
4739;DHT22;2383;48.632;10.156;2023-03-21T05:48:51;7.70;97.40
4739;DHT22;2383;48.632;10.156;2023-03-21T05:52:55;7.90;97.10
4739;DHT22;2383;48.632;10.156;2023-03-21T05:56:57;7.70;97.10
4739;DHT22;2383;48.632;10.156;2023-03-21T06:01:15;7.80;97.20
4739;DHT22;2383;48.632;10.156;2023-03-21T06:05:25;7.90;97.20
4739;DHT22;2383;48.632;10.156;2023-03-21T06:09:28;7.90;97.10
4739;DHT22;2383;48.632;10.156;2023-03-21T06:13:34;7.80;97.20
4739;DHT22;2383;48.632;10.156;2023-03-21T06:17:36;7.90;97.30
4739;DHT22;2383;48.632;10.156;2023-03-21T06:21:42;8.00;97.30
4739;DHT22;2383;48.632;10.156;2023-03-21T06:25:44;8.00;97.20
4739;DHT22;2383;48.632;10.156;2023-03-21T06:29:46;7.90;97.30
4739;DHT22;2383;48.632;10.156;2023-03-21T06:33:48;7.60;97.50
4739;DHT22;2383;48.632;10.156;2023-03-21T06:37:50;7.60;97.50
4739;DHT22;2383;48.632;10.156;2023-03-21T06:41:53;7.40;97.70
4739;DHT22;2383;48.632;10.156;2023-03-21T06:45:56;7.60;97.80
4739;DHT22;2383;48.632;10.156;2023-03-21T06:50:00;7.80;97.90
4739;DHT22;2383;48.632;10.156;2023-03-21T06:54:07;7.80;97.80
4739;DHT22;2383;48.632;10.156;2023-03-21T06:58:27;7.90;97.50
4739;DHT22;2383;48.632;10.156;2023-03-21T07:02:30;8.00;97.20
4739;DHT22;2383;48.632;10.156;2023-03-21T07:06:41;8.30;97.10
4739;DHT22;2383;48.632;10.156;2023-03-21T07:10:44;8.50;96.60
4739;DHT22;2383;48.632;10.156;2023-03-21T07:14:49;8.70;96.40
4739;DHT22;2383;48.632;10.156;2023-03-21T07:18:52;8.70;96.40
4739;DHT22;2383;48.632;10.156;2023-03-21T07:22:54;8.80;96.20
4739;DHT22;2383;48.632;10.156;2023-03-21T07:26:56;8.90;96.10
4739;DHT22;2383;48.632;10.156;2023-03-21T07:31:04;9.00;96.00
4739;DHT22;2383;48.632;10.156;2023-03-21T07:35:10;9.10;96.10
4739;DHT22;2383;48.632;10.156;2023-03-21T07:39:12;9.20;96.10
4739;DHT22;2383;48.632;10.156;2023-03-21T07:43:15;9.30;95.80
4739;DHT22;2383;48.632;10.156;2023-03-21T07:47:18;9.20;95.70
4739;DHT22;2383;48.632;10.156;2023-03-21T07:51:21;9.20;95.90
4739;DHT22;2383;48.632;10.156;2023-03-21T07:55:23;9.20;95.70
4739;DHT22;2383;48.632;10.156;2023-03-21T07:59:25;9.10;96.00
4739;DHT22;2383;48.632;10.156;2023-03-21T08:03:26;9.20;96.10
4739;DHT22;2383;48.632;10.156;2023-03-21T08:07:30;9.30;96.00
4739;DHT22;2383;48.632;10.156;2023-03-21T08:11:31;9.00;96.10
4739;DHT22;2383;48.632;10.156;2023-03-21T08:15:33;8.90;96.50
4739;DHT22;2383;48.632;10.156;2023-03-21T08:19:36;8.80;96.50
4739;DHT22;2383;48.632;10.156;2023-03-21T08:23:38;9.00;96.50
4739;DHT22;2383;48.632;10.156;2023-03-21T08:27:41;9.40;96.40
4739;DHT22;2383;48.632;10.156;2023-03-21T08:31:43;9.20;96.40
4739;DHT22;2383;48.632;10.156;2023-03-21T08:35:45;9.40;96.10
4739;DHT22;2383;48.632;10.156;2023-03-21T08:39:47;9.90;95.50
4739;DHT22;2383;48.632;10.156;2023-03-21T08:43:49;9.80;95.90
4739;DHT22;2383;48.632;10.156;2023-03-21T08:47:52;10.00;95.50
4739;DHT22;2383;48.632;10.156;2023-03-21T08:51:56;10.10;95.60
4739;DHT22;2383;48.632;10.156;2023-03-21T08:55:58;10.20;94.70
4739;DHT22;2383;48.632;10.156;2023-03-21T09:00:01;10.30;94.50
4739;DHT22;2383;48.632;10.156;2023-03-21T09:04:02;10.50;94.50
4739;DHT22;2383;48.632;10.156;2023-03-21T09:08:08;10.10;94.70
4739;DHT22;2383;48.632;10.156;2023-03-21T09:12:10;10.50;94.50
4739;DHT22;2383;48.632;10.156;2023-03-21T09:16:12;10.70;94.30
4739;DHT22;2383;48.632;10.156;2023-03-21T09:20:14;11.00;93.30
4739;DHT22;2383;48.632;10.156;2023-03-21T09:24:26;11.20;92.80
4739;DHT22;2383;48.632;10.156;2023-03-21T09:28:28;11.00;92.20
4739;DHT22;2383;48.632;10.156;2023-03-21T09:32:30;11.00;91.50
4739;DHT22;2383;48.632;10.156;2023-03-21T09:36:33;11.00;92.00
4739;DHT22;2383;48.632;10.156;2023-03-21T09:40:46;11.20;91.70
4739;DHT22;2383;48.632;10.156;2023-03-21T09:49:33;10.80;92.30
4739;DHT22;2383;48.632;10.156;2023-03-21T09:53:37;11.00;91.50
4739;DHT22;2383;48.632;10.156;2023-03-21T09:57:43;10.90;91.10
4739;DHT22;2383;48.632;10.156;2023-03-21T10:01:47;10.80;91.70
4739;DHT22;2383;48.632;10.156;2023-03-21T10:05:52;10.90;91.20
4739;DHT22;2383;48.632;10.156;2023-03-21T10:10:00;10.80;91.40
4739;DHT22;2383;48.632;10.156;2023-03-21T10:14:29;10.60;91.40
4739;DHT22;2383;48.632;10.156;2023-03-21T10:18:32;10.20;92.20
4739;DHT22;2383;48.632;10.156;2023-03-21T10:22:34;10.50;91.40
4739;DHT22;2383;48.632;10.156;2023-03-21T10:26:36;10.70;91.60
4739;DHT22;2383;48.632;10.156;2023-03-21T10:34:45;9.50;93.70
4739;DHT22;2383;48.632;10.156;2023-03-21T10:38:53;10.10;93.30
4739;DHT22;2383;48.632;10.156;2023-03-21T10:42:56;10.40;93.30
4739;DHT22;2383;48.632;10.156;2023-03-21T10:51:07;10.40;93.40
4739;DHT22;2383;48.632;10.156;2023-03-21T10:55:20;10.60;93.80
4739;DHT22;2383;48.632;10.156;2023-03-21T10:59:24;10.60;93.70
4739;DHT22;2383;48.632;10.156;2023-03-21T11:03:30;10.60;93.70
4739;DHT22;2383;48.632;10.156;2023-03-21T11:07:34;10.50;93.30
4739;DHT22;2383;48.632;10.156;2023-03-21T11:11:40;10.30;93.50
4739;DHT22;2383;48.632;10.156;2023-03-21T11:19:59;10.90;93.50
4739;DHT22;2383;48.632;10.156;2023-03-21T11:24:02;11.40;93.00
4739;DHT22;2383;48.632;10.156;2023-03-21T11:28:08;10.50;93.60
4739;DHT22;2383;48.632;10.156;2023-03-21T11:40:32;11.80;92.50
4739;DHT22;2383;48.632;10.156;2023-03-21T11:44:43;11.40;92.70
4739;DHT22;2383;48.632;10.156;2023-03-21T11:48:46;11.80;92.20
4739;DHT22;2383;48.632;10.156;2023-03-21T12:06:01;11.70;91.30
4739;DHT22;2383;48.632;10.156;2023-03-21T12:10:34;11.50;91.90
4739;DHT22;2383;48.632;10.156;2023-03-21T12:19:14;11.60;93.20
4739;DHT22;2383;48.632;10.156;2023-03-21T12:28:03;12.20;92.20
4739;DHT22;2383;48.632;10.156;2023-03-21T12:41:25;12.40;91.90
4739;DHT22;2383;48.632;10.156;2023-03-21T12:45:36;12.60;92.20
4739;DHT22;2383;48.632;10.156;2023-03-21T12:50:02;12.30;92.40
4739;DHT22;2383;48.632;10.156;2023-03-21T12:54:23;12.20;92.40
4739;DHT22;2383;48.632;10.156;2023-03-21T12:58:28;12.30;91.60
4739;DHT22;2383;48.632;10.156;2023-03-21T13:03:03;13.00;91.50
4739;DHT22;2383;48.632;10.156;2023-03-21T13:07:08;12.80;90.30
4739;DHT22;2383;48.632;10.156;2023-03-21T13:11:14;12.50;90.20
4739;DHT22;2383;48.632;10.156;2023-03-21T13:24:32;13.50;88.40
4739;DHT22;2383;48.632;10.156;2023-03-21T13:28:39;13.40;88.50
4739;DHT22;2383;48.632;10.156;2023-03-21T13:32:43;13.10;90.20
4739;DHT22;2383;48.632;10.156;2023-03-21T13:36:48;13.10;89.30
4739;DHT22;2383;48.632;10.156;2023-03-21T13:44:58;13.50;89.50
4739;DHT22;2383;48.632;10.156;2023-03-21T13:49:13;13.50;88.70
4739;DHT22;2383;48.632;10.156;2023-03-21T13:57:37;13.50;87.90
4739;DHT22;2383;48.632;10.156;2023-03-21T14:01:41;13.50;89.10
4739;DHT22;2383;48.632;10.156;2023-03-21T14:05:58;13.50;90.00
4739;DHT22;2383;48.632;10.156;2023-03-21T14:10:03;13.90;88.30
4739;DHT22;2383;48.632;10.156;2023-03-21T14:14:08;13.80;87.50
4739;DHT22;2383;48.632;10.156;2023-03-21T14:18:15;13.90;88.00
4739;DHT22;2383;48.632;10.156;2023-03-21T14:22:39;13.70;87.80
4739;DHT22;2383;48.632;10.156;2023-03-21T14:26:52;13.70;88.80
4739;DHT22;2383;48.632;10.156;2023-03-21T14:30:57;14.10;89.20
4739;DHT22;2383;48.632;10.156;2023-03-21T14:35:01;13.90;88.70
4739;DHT22;2383;48.632;10.156;2023-03-21T14:39:09;13.80;90.00
4739;DHT22;2383;48.632;10.156;2023-03-21T14:43:12;14.00;88.30
4739;DHT22;2383;48.632;10.156;2023-03-21T14:47:18;14.10;88.70
4739;DHT22;2383;48.632;10.156;2023-03-21T14:51:21;14.10;89.70
4739;DHT22;2383;48.632;10.156;2023-03-21T14:55:23;14.00;89.10
4739;DHT22;2383;48.632;10.156;2023-03-21T14:59:31;14.00;89.90
4739;DHT22;2383;48.632;10.156;2023-03-21T15:03:33;13.80;90.30
4739;DHT22;2383;48.632;10.156;2023-03-21T15:07:37;13.90;90.40
4739;DHT22;2383;48.632;10.156;2023-03-21T15:11:39;13.80;90.10
4739;DHT22;2383;48.632;10.156;2023-03-21T15:15:41;13.90;89.00
4739;DHT22;2383;48.632;10.156;2023-03-21T15:19:44;13.80;90.00
4739;DHT22;2383;48.632;10.156;2023-03-21T15:23:49;13.70;90.60
4739;DHT22;2383;48.632;10.156;2023-03-21T15:27:53;13.40;90.20
4739;DHT22;2383;48.632;10.156;2023-03-21T15:31:56;13.80;90.40
4739;DHT22;2383;48.632;10.156;2023-03-21T15:35:59;13.80;91.00
4739;DHT22;2383;48.632;10.156;2023-03-21T15:44:13;13.70;91.70
4739;DHT22;2383;48.632;10.156;2023-03-21T15:48:15;13.60;90.80
4739;DHT22;2383;48.632;10.156;2023-03-21T15:52:17;13.40;91.10
4739;DHT22;2383;48.632;10.156;2023-03-21T15:56:21;13.60;91.10
4739;DHT22;2383;48.632;10.156;2023-03-21T16:00:31;13.60;91.40
4739;DHT22;2383;48.632;10.156;2023-03-21T16:04:54;13.60;91.80
4739;DHT22;2383;48.632;10.156;2023-03-21T16:09:12;13.80;91.30
4739;DHT22;2383;48.632;10.156;2023-03-21T16:13:22;13.80;91.70
4739;DHT22;2383;48.632;10.156;2023-03-21T16:17:33;13.80;91.60
4739;DHT22;2383;48.632;10.156;2023-03-21T16:21:38;13.80;91.90
4739;DHT22;2383;48.632;10.156;2023-03-21T16:25:41;13.70;92.30
4739;DHT22;2383;48.632;10.156;2023-03-21T16:29:44;13.60;92.10
4739;DHT22;2383;48.632;10.156;2023-03-21T16:33:46;13.60;91.90
4739;DHT22;2383;48.632;10.156;2023-03-21T16:37:49;13.50;91.60
4739;DHT22;2383;48.632;10.156;2023-03-21T16:41:51;13.50;91.40
4739;DHT22;2383;48.632;10.156;2023-03-21T16:45:53;13.50;91.40
4739;DHT22;2383;48.632;10.156;2023-03-21T16:49:55;13.40;91.80
4739;DHT22;2383;48.632;10.156;2023-03-21T16:53:57;13.50;92.50
4739;DHT22;2383;48.632;10.156;2023-03-21T16:57:59;13.40;92.00
4739;DHT22;2383;48.632;10.156;2023-03-21T17:02:07;13.20;92.10
4739;DHT22;2383;48.632;10.156;2023-03-21T17:06:17;13.40;92.50
4739;DHT22;2383;48.632;10.156;2023-03-21T17:10:22;13.40;92.60
4739;DHT22;2383;48.632;10.156;2023-03-21T17:14:24;13.40;92.10
4739;DHT22;2383;48.632;10.156;2023-03-21T17:18:26;13.20;92.30
4739;DHT22;2383;48.632;10.156;2023-03-21T17:22:28;13.20;92.50
4739;DHT22;2383;48.632;10.156;2023-03-21T17:26:30;13.10;92.60
4739;DHT22;2383;48.632;10.156;2023-03-21T17:30:34;13.10;92.70
4739;DHT22;2383;48.632;10.156;2023-03-21T17:34:37;13.10;92.60
4739;DHT22;2383;48.632;10.156;2023-03-21T17:38:39;13.10;92.60
4739;DHT22;2383;48.632;10.156;2023-03-21T17:42:41;13.20;92.70
4739;DHT22;2383;48.632;10.156;2023-03-21T17:46:43;12.90;92.10
4739;DHT22;2383;48.632;10.156;2023-03-21T17:50:45;12.80;92.20
4739;DHT22;2383;48.632;10.156;2023-03-21T17:54:47;12.80;92.70
4739;DHT22;2383;48.632;10.156;2023-03-21T17:58:49;12.80;92.90
4739;DHT22;2383;48.632;10.156;2023-03-21T18:02:51;12.80;93.10
4739;DHT22;2383;48.632;10.156;2023-03-21T18:06:53;12.70;93.50
4739;DHT22;2383;48.632;10.156;2023-03-21T18:10:58;12.60;93.60
4739;DHT22;2383;48.632;10.156;2023-03-21T18:15:00;12.60;93.60
4739;DHT22;2383;48.632;10.156;2023-03-21T18:19:02;12.60;93.80
4739;DHT22;2383;48.632;10.156;2023-03-21T18:23:04;12.50;93.90
4739;DHT22;2383;48.632;10.156;2023-03-21T18:27:06;12.50;94.20
4739;DHT22;2383;48.632;10.156;2023-03-21T18:31:13;12.40;94.40
4739;DHT22;2383;48.632;10.156;2023-03-21T18:35:20;12.40;94.50
4739;DHT22;2383;48.632;10.156;2023-03-21T18:39:22;12.30;94.50
4739;DHT22;2383;48.632;10.156;2023-03-21T18:43:24;12.30;94.50
4739;DHT22;2383;48.632;10.156;2023-03-21T18:47:46;12.30;94.10
4739;DHT22;2383;48.632;10.156;2023-03-21T18:51:49;12.20;94.00
4739;DHT22;2383;48.632;10.156;2023-03-21T18:55:51;12.20;94.00
4739;DHT22;2383;48.632;10.156;2023-03-21T18:59:53;12.10;94.00
4739;DHT22;2383;48.632;10.156;2023-03-21T19:03:55;12.00;93.90
4739;DHT22;2383;48.632;10.156;2023-03-21T19:08:20;11.90;94.10
4739;DHT22;2383;48.632;10.156;2023-03-21T19:12:23;12.00;94.10
4739;DHT22;2383;48.632;10.156;2023-03-21T19:16:25;12.00;94.50
4739;DHT22;2383;48.632;10.156;2023-03-21T19:20:43;12.00;94.80
4739;DHT22;2383;48.632;10.156;2023-03-21T19:24:45;11.90;95.00
4739;DHT22;2383;48.632;10.156;2023-03-21T19:28:47;11.80;95.20
4739;DHT22;2383;48.632;10.156;2023-03-21T19:32:49;11.80;95.30
4739;DHT22;2383;48.632;10.156;2023-03-21T19:36:51;11.70;95.40
4739;DHT22;2383;48.632;10.156;2023-03-21T19:40:58;11.70;95.40
4739;DHT22;2383;48.632;10.156;2023-03-21T19:45:00;11.60;95.30
4739;DHT22;2383;48.632;10.156;2023-03-21T19:49:02;11.50;95.40
4739;DHT22;2383;48.632;10.156;2023-03-21T19:53:05;11.40;95.60
4739;DHT22;2383;48.632;10.156;2023-03-21T19:57:06;11.50;95.50
4739;DHT22;2383;48.632;10.156;2023-03-21T20:01:11;11.50;95.10
4739;DHT22;2383;48.632;10.156;2023-03-21T20:05:14;11.50;95.00
4739;DHT22;2383;48.632;10.156;2023-03-21T20:09:17;11.50;95.30
4739;DHT22;2383;48.632;10.156;2023-03-21T20:13:39;11.30;95.60
4739;DHT22;2383;48.632;10.156;2023-03-21T20:17:41;11.30;95.70
4739;DHT22;2383;48.632;10.156;2023-03-21T20:21:43;11.20;95.90
4739;DHT22;2383;48.632;10.156;2023-03-21T20:25:57;11.20;95.40
4739;DHT22;2383;48.632;10.156;2023-03-21T20:29:59;11.20;95.50
4739;DHT22;2383;48.632;10.156;2023-03-21T20:34:10;11.10;95.60
4739;DHT22;2383;48.632;10.156;2023-03-21T20:38:12;11.10;95.90
4739;DHT22;2383;48.632;10.156;2023-03-21T20:42:14;11.10;95.90
4739;DHT22;2383;48.632;10.156;2023-03-21T20:46:16;11.10;95.90
4739;DHT22;2383;48.632;10.156;2023-03-21T20:50:18;11.10;95.80
4739;DHT22;2383;48.632;10.156;2023-03-21T20:54:23;11.00;96.00
4739;DHT22;2383;48.632;10.156;2023-03-21T20:58:25;10.70;96.00
4739;DHT22;2383;48.632;10.156;2023-03-21T21:02:48;10.60;96.40
4739;DHT22;2383;48.632;10.156;2023-03-21T21:06:50;10.80;96.40
4739;DHT22;2383;48.632;10.156;2023-03-21T21:10:52;10.80;96.40
4739;DHT22;2383;48.632;10.156;2023-03-21T21:15:14;10.20;96.90
4739;DHT22;2383;48.632;10.156;2023-03-21T21:19:17;10.60;96.80
4739;DHT22;2383;48.632;10.156;2023-03-21T21:23:22;10.40;96.80
4739;DHT22;2383;48.632;10.156;2023-03-21T21:27:26;10.60;96.90
4739;DHT22;2383;48.632;10.156;2023-03-21T21:31:29;10.70;96.50
4739;DHT22;2383;48.632;10.156;2023-03-21T21:35:35;10.80;96.40
4739;DHT22;2383;48.632;10.156;2023-03-21T21:39:37;10.80;96.50
4739;DHT22;2383;48.632;10.156;2023-03-21T21:43:40;10.80;96.40
4739;DHT22;2383;48.632;10.156;2023-03-21T21:47:43;10.80;96.50
4739;DHT22;2383;48.632;10.156;2023-03-21T21:51:45;10.40;96.60
4739;DHT22;2383;48.632;10.156;2023-03-21T21:55:48;9.90;97.40
4739;DHT22;2383;48.632;10.156;2023-03-21T21:59:51;10.30;97.30
4739;DHT22;2383;48.632;10.156;2023-03-21T22:03:55;10.20;97.10
4739;DHT22;2383;48.632;10.156;2023-03-21T22:08:06;10.30;97.10
4739;DHT22;2383;48.632;10.156;2023-03-21T22:12:11;10.10;97.20
4739;DHT22;2383;48.632;10.156;2023-03-21T22:16:13;10.30;97.10
4739;DHT22;2383;48.632;10.156;2023-03-21T22:20:16;10.10;97.30
4739;DHT22;2383;48.632;10.156;2023-03-21T22:24:19;10.00;97.30
4739;DHT22;2383;48.632;10.156;2023-03-21T22:28:20;10.20;97.10
4739;DHT22;2383;48.632;10.156;2023-03-21T22:32:23;10.30;97.00
4739;DHT22;2383;48.632;10.156;2023-03-21T22:36:25;10.50;96.80
4739;DHT22;2383;48.632;10.156;2023-03-21T22:40:26;10.60;96.90
4739;DHT22;2383;48.632;10.156;2023-03-21T22:44:31;10.60;96.90
4739;DHT22;2383;48.632;10.156;2023-03-21T22:48:36;10.70;97.00
4739;DHT22;2383;48.632;10.156;2023-03-21T22:52:38;10.70;97.00
4739;DHT22;2383;48.632;10.156;2023-03-21T22:56:40;10.60;97.00
4739;DHT22;2383;48.632;10.156;2023-03-21T23:00:42;10.40;97.20
4739;DHT22;2383;48.632;10.156;2023-03-21T23:04:44;10.50;97.20
4739;DHT22;2383;48.632;10.156;2023-03-21T23:08:46;10.60;97.20
4739;DHT22;2383;48.632;10.156;2023-03-21T23:12:48;10.60;97.20
4739;DHT22;2383;48.632;10.156;2023-03-21T23:16:51;10.50;97.30
4739;DHT22;2383;48.632;10.156;2023-03-21T23:20:54;10.50;97.10
4739;DHT22;2383;48.632;10.156;2023-03-21T23:24:59;10.20;97.10
4739;DHT22;2383;48.632;10.156;2023-03-21T23:29:03;10.00;97.40
4739;DHT22;2383;48.632;10.156;2023-03-21T23:33:05;10.20;97.40
4739;DHT22;2383;48.632;10.156;2023-03-21T23:37:07;10.30;97.30
4739;DHT22;2383;48.632;10.156;2023-03-21T23:41:11;10.40;97.20
4739;DHT22;2383;48.632;10.156;2023-03-21T23:45:13;10.40;97.10
4739;DHT22;2383;48.632;10.156;2023-03-21T23:49:15;10.40;97.00
4739;DHT22;2383;48.632;10.156;2023-03-21T23:53:17;10.40;97.10
4739;DHT22;2383;48.632;10.156;2023-03-21T23:57:19;9.90;97.40
